sensor_id;sensor_type;location;lat;lon;timestamp;temperature;humidity
76102;SHT30;64830;46.910;6.354;2023-01-31T00:01:04;1.88;82.53
76102;SHT30;64830;46.910;6.354;2023-01-31T00:03:29;1.86;82.44
76102;SHT30;64830;46.910;6.354;2023-01-31T00:05:55;1.91;82.54
76102;SHT30;64830;46.910;6.354;2023-01-31T00:08:20;1.89;82.34
76102;SHT30;64830;46.910;6.354;2023-01-31T00:10:46;1.89;82.25
76102;SHT30;64830;46.910;6.354;2023-01-31T00:13:11;1.91;82.25
76102;SHT30;64830;46.910;6.354;2023-01-31T00:15:37;1.91;82.49
76102;SHT30;64830;46.910;6.354;2023-01-31T00:18:02;1.92;82.46
76102;SHT30;64830;46.910;6.354;2023-01-31T00:20:27;1.89;82.67
76102;SHT30;64830;46.910;6.354;2023-01-31T00:22:53;1.89;82.74
76102;SHT30;64830;46.910;6.354;2023-01-31T00:25:18;1.91;82.83
76102;SHT30;64830;46.910;6.354;2023-01-31T00:27:44;1.91;82.88
76102;SHT30;64830;46.910;6.354;2023-01-31T00:30:10;1.89;82.80
76102;SHT30;64830;46.910;6.354;2023-01-31T00:32:35;1.85;82.74
76102;SHT30;64830;46.910;6.354;2023-01-31T00:35:00;1.86;82.85
76102;SHT30;64830;46.910;6.354;2023-01-31T00:37:26;1.84;82.83
76102;SHT30;64830;46.910;6.354;2023-01-31T00:39:51;1.85;82.82
76102;SHT30;64830;46.910;6.354;2023-01-31T00:42:17;1.82;83.14
76102;SHT30;64830;46.910;6.354;2023-01-31T00:44:42;1.81;83.24
76102;SHT30;64830;46.910;6.354;2023-01-31T00:47:08;1.74;83.29
76102;SHT30;64830;46.910;6.354;2023-01-31T00:49:33;1.74;83.49
76102;SHT30;64830;46.910;6.354;2023-01-31T00:51:58;1.67;83.58
76102;SHT30;64830;46.910;6.354;2023-01-31T00:54:24;1.64;83.64
76102;SHT30;64830;46.910;6.354;2023-01-31T00:56:49;1.60;83.49
76102;SHT30;64830;46.910;6.354;2023-01-31T00:59:15;1.60;83.60
76102;SHT30;64830;46.910;6.354;2023-01-31T01:01:40;1.60;83.57
76102;SHT30;64830;46.910;6.354;2023-01-31T01:04:06;1.58;83.62
76102;SHT30;64830;46.910;6.354;2023-01-31T01:06:32;1.57;83.67
76102;SHT30;64830;46.910;6.354;2023-01-31T01:08:58;1.58;83.60
76102;SHT30;64830;46.910;6.354;2023-01-31T01:11:29;1.61;83.59
76102;SHT30;64830;46.910;6.354;2023-01-31T01:13:56;1.60;83.53
76102;SHT30;64830;46.910;6.354;2023-01-31T01:16:36;1.56;83.39
76102;SHT30;64830;46.910;6.354;2023-01-31T01:19:04;1.56;83.55
76102;SHT30;64830;46.910;6.354;2023-01-31T01:21:31;1.48;83.54
76102;SHT30;64830;46.910;6.354;2023-01-31T01:24:00;1.46;83.64
76102;SHT30;64830;46.910;6.354;2023-01-31T01:26:29;1.43;83.67
76102;SHT30;64830;46.910;6.354;2023-01-31T01:28:56;1.35;83.88
76102;SHT30;64830;46.910;6.354;2023-01-31T01:31:22;1.29;83.78
76102;SHT30;64830;46.910;6.354;2023-01-31T01:33:55;1.28;83.90
76102;SHT30;64830;46.910;6.354;2023-01-31T01:36:22;1.28;83.98
76102;SHT30;64830;46.910;6.354;2023-01-31T01:38:50;1.28;83.93
76102;SHT30;64830;46.910;6.354;2023-01-31T01:41:16;1.32;83.96
76102;SHT30;64830;46.910;6.354;2023-01-31T01:43:44;1.26;83.97
76102;SHT30;64830;46.910;6.354;2023-01-31T01:46:15;1.26;83.91
76102;SHT30;64830;46.910;6.354;2023-01-31T01:48:44;1.22;83.97
76102;SHT30;64830;46.910;6.354;2023-01-31T01:51:13;1.19;84.00
76102;SHT30;64830;46.910;6.354;2023-01-31T01:53:42;1.22;84.13
76102;SHT30;64830;46.910;6.354;2023-01-31T01:56:12;1.20;84.11
76102;SHT30;64830;46.910;6.354;2023-01-31T01:58:44;1.22;84.07
76102;SHT30;64830;46.910;6.354;2023-01-31T02:01:10;1.20;84.11
76102;SHT30;64830;46.910;6.354;2023-01-31T02:03:38;1.19;84.11
76102;SHT30;64830;46.910;6.354;2023-01-31T02:06:05;1.19;84.04
76102;SHT30;64830;46.910;6.354;2023-01-31T02:08:34;1.18;84.17
76102;SHT30;64830;46.910;6.354;2023-01-31T02:13:26;1.16;84.05
76102;SHT30;64830;46.910;6.354;2023-01-31T02:15:52;1.08;84.16
76102;SHT30;64830;46.910;6.354;2023-01-31T02:18:20;1.05;84.37
76102;SHT30;64830;46.910;6.354;2023-01-31T02:29:49;1.06;84.67
76102;SHT30;64830;46.910;6.354;2023-01-31T02:34:42;1.11;84.57
76102;SHT30;64830;46.910;6.354;2023-01-31T02:37:21;1.13;84.46
76102;SHT30;64830;46.910;6.354;2023-01-31T02:48:36;1.19;83.66
76102;SHT30;64830;46.910;6.354;2023-01-31T02:51:09;1.20;83.62
76102;SHT30;64830;46.910;6.354;2023-01-31T02:53:47;1.16;83.57
76102;SHT30;64830;46.910;6.354;2023-01-31T03:01:37;1.06;82.72
76102;SHT30;64830;46.910;6.354;2023-01-31T03:04:06;1.02;82.66
76102;SHT30;64830;46.910;6.354;2023-01-31T03:09:13;0.91;82.08
76102;SHT30;64830;46.910;6.354;2023-01-31T03:14:35;0.77;82.19
76102;SHT30;64830;46.910;6.354;2023-01-31T03:22:36;0.61;83.47
76102;SHT30;64830;46.910;6.354;2023-01-31T03:25:04;0.57;83.72
76102;SHT30;64830;46.910;6.354;2023-01-31T03:27:33;0.53;83.83
76102;SHT30;64830;46.910;6.354;2023-01-31T03:30:03;0.50;83.91
76102;SHT30;64830;46.910;6.354;2023-01-31T03:32:33;0.46;84.01
76102;SHT30;64830;46.910;6.354;2023-01-31T03:34:59;0.43;83.77
76102;SHT30;64830;46.910;6.354;2023-01-31T03:37:54;0.39;83.17
76102;SHT30;64830;46.910;6.354;2023-01-31T03:40:30;0.35;82.69
76102;SHT30;64830;46.910;6.354;2023-01-31T03:43:24;0.29;82.65
76102;SHT30;64830;46.910;6.354;2023-01-31T03:45:56;0.22;82.46
76102;SHT30;64830;46.910;6.354;2023-01-31T03:48:27;0.19;83.09
76102;SHT30;64830;46.910;6.354;2023-01-31T03:50:59;0.18;82.94
76102;SHT30;64830;46.910;6.354;2023-01-31T03:53:36;0.13;83.22
76102;SHT30;64830;46.910;6.354;2023-01-31T03:56:16;0.09;83.05
76102;SHT30;64830;46.910;6.354;2023-01-31T03:58:48;0.09;82.94
76102;SHT30;64830;46.910;6.354;2023-01-31T04:01:16;0.11;83.27
76102;SHT30;64830;46.910;6.354;2023-01-31T04:03:45;0.08;83.09
76102;SHT30;64830;46.910;6.354;2023-01-31T04:06:12;0.06;83.01
76102;SHT30;64830;46.910;6.354;2023-01-31T04:08:38;0.05;83.15
76102;SHT30;64830;46.910;6.354;2023-01-31T04:11:07;0.09;83.22
76102;SHT30;64830;46.910;6.354;2023-01-31T04:13:33;0.11;83.48
76102;SHT30;64830;46.910;6.354;2023-01-31T04:15:59;0.16;83.48
76102;SHT30;64830;46.910;6.354;2023-01-31T04:18:24;0.13;83.28
76102;SHT30;64830;46.910;6.354;2023-01-31T04:20:49;0.05;83.18
76102;SHT30;64830;46.910;6.354;2023-01-31T04:23:15;0.05;83.35
76102;SHT30;64830;46.910;6.354;2023-01-31T04:25:43;0.08;83.46
76102;SHT30;64830;46.910;6.354;2023-01-31T04:28:09;0.12;83.45
76102;SHT30;64830;46.910;6.354;2023-01-31T04:30:34;0.12;83.30
76102;SHT30;64830;46.910;6.354;2023-01-31T04:33:00;0.13;83.35
76102;SHT30;64830;46.910;6.354;2023-01-31T04:35:25;0.08;83.46
76102;SHT30;64830;46.910;6.354;2023-01-31T04:37:50;0.12;83.50
76102;SHT30;64830;46.910;6.354;2023-01-31T04:40:16;0.13;83.62
76102;SHT30;64830;46.910;6.354;2023-01-31T04:42:41;0.18;83.61
76102;SHT30;64830;46.910;6.354;2023-01-31T04:45:07;0.21;83.33
76102;SHT30;64830;46.910;6.354;2023-01-31T04:47:33;0.22;83.45
76102;SHT30;64830;46.910;6.354;2023-01-31T04:49:58;0.25;83.38
76102;SHT30;64830;46.910;6.354;2023-01-31T04:52:24;0.25;83.20
76102;SHT30;64830;46.910;6.354;2023-01-31T04:54:49;0.28;83.35
76102;SHT30;64830;46.910;6.354;2023-01-31T04:57:14;0.26;83.43
76102;SHT30;64830;46.910;6.354;2023-01-31T04:59:40;0.30;83.51
76102;SHT30;64830;46.910;6.354;2023-01-31T05:02:05;0.32;83.40
76102;SHT30;64830;46.910;6.354;2023-01-31T05:04:34;0.33;83.39
76102;SHT30;64830;46.910;6.354;2023-01-31T05:06:59;0.39;83.31
76102;SHT30;64830;46.910;6.354;2023-01-31T05:09:24;0.36;83.18
76102;SHT30;64830;46.910;6.354;2023-01-31T05:11:50;0.39;83.05
76102;SHT30;64830;46.910;6.354;2023-01-31T05:14:16;0.40;83.12
76102;SHT30;64830;46.910;6.354;2023-01-31T05:16:42;0.42;83.07
76102;SHT30;64830;46.910;6.354;2023-01-31T05:19:14;0.43;82.94
76102;SHT30;64830;46.910;6.354;2023-01-31T05:21:41;0.43;83.07
76102;SHT30;64830;46.910;6.354;2023-01-31T05:24:32;0.47;82.86
76102;SHT30;64830;46.910;6.354;2023-01-31T05:27:00;0.47;82.74
76102;SHT30;64830;46.910;6.354;2023-01-31T05:29:31;0.47;82.73
76102;SHT30;64830;46.910;6.354;2023-01-31T05:31:59;0.47;82.78
76102;SHT30;64830;46.910;6.354;2023-01-31T05:34:25;0.49;82.95
76102;SHT30;64830;46.910;6.354;2023-01-31T05:36:53;0.53;82.87
76102;SHT30;64830;46.910;6.354;2023-01-31T05:39:18;0.53;82.81
76102;SHT30;64830;46.910;6.354;2023-01-31T05:41:44;0.54;82.69
76102;SHT30;64830;46.910;6.354;2023-01-31T05:44:09;0.52;82.83
76102;SHT30;64830;46.910;6.354;2023-01-31T05:46:36;0.52;82.91
76102;SHT30;64830;46.910;6.354;2023-01-31T05:49:05;0.53;82.87
76102;SHT30;64830;46.910;6.354;2023-01-31T05:51:31;0.53;82.87
76102;SHT30;64830;46.910;6.354;2023-01-31T05:53:57;0.54;82.86
76102;SHT30;64830;46.910;6.354;2023-01-31T05:56:23;0.53;82.89
76102;SHT30;64830;46.910;6.354;2023-01-31T05:58:48;0.49;82.99
76102;SHT30;64830;46.910;6.354;2023-01-31T06:01:19;0.42;82.91
76102;SHT30;64830;46.910;6.354;2023-01-31T06:03:45;0.39;83.07
76102;SHT30;64830;46.910;6.354;2023-01-31T06:06:11;0.39;83.14
76102;SHT30;64830;46.910;6.354;2023-01-31T06:08:37;0.39;83.07
76102;SHT30;64830;46.910;6.354;2023-01-31T06:11:03;0.40;82.94
76102;SHT30;64830;46.910;6.354;2023-01-31T06:13:32;0.43;83.00
76102;SHT30;64830;46.910;6.354;2023-01-31T06:15:57;0.42;82.87
76102;SHT30;64830;46.910;6.354;2023-01-31T06:18:23;0.43;82.96
76102;SHT30;64830;46.910;6.354;2023-01-31T06:20:50;0.36;82.96
76102;SHT30;64830;46.910;6.354;2023-01-31T06:23:16;0.39;83.04
76102;SHT30;64830;46.910;6.354;2023-01-31T06:25:41;0.40;83.07
76102;SHT30;64830;46.910;6.354;2023-01-31T06:28:06;0.38;83.05
76102;SHT30;64830;46.910;6.354;2023-01-31T06:30:32;0.42;83.00
76102;SHT30;64830;46.910;6.354;2023-01-31T06:32:58;0.43;82.84
76102;SHT30;64830;46.910;6.354;2023-01-31T06:35:24;0.43;83.09
76102;SHT30;64830;46.910;6.354;2023-01-31T06:37:49;0.46;83.04
76102;SHT30;64830;46.910;6.354;2023-01-31T06:40:15;0.49;82.95
76102;SHT30;64830;46.910;6.354;2023-01-31T06:42:40;0.52;82.95
76102;SHT30;64830;46.910;6.354;2023-01-31T06:45:06;0.52;82.67
76102;SHT30;64830;46.910;6.354;2023-01-31T06:47:31;0.53;82.37
76102;SHT30;64830;46.910;6.354;2023-01-31T06:49:57;0.47;82.24
76102;SHT30;64830;46.910;6.354;2023-01-31T06:52:22;0.50;82.31
76102;SHT30;64830;46.910;6.354;2023-01-31T06:54:48;0.49;82.28
76102;SHT30;64830;46.910;6.354;2023-01-31T06:57:13;0.52;82.13
76102;SHT30;64830;46.910;6.354;2023-01-31T06:59:39;0.46;81.97
76102;SHT30;64830;46.910;6.354;2023-01-31T07:02:04;0.46;81.77
76102;SHT30;64830;46.910;6.354;2023-01-31T07:04:30;0.39;81.74
76102;SHT30;64830;46.910;6.354;2023-01-31T07:06:55;0.29;81.80
76102;SHT30;64830;46.910;6.354;2023-01-31T07:09:21;0.21;81.93
76102;SHT30;64830;46.910;6.354;2023-01-31T07:11:47;0.18;81.78
76102;SHT30;64830;46.910;6.354;2023-01-31T07:14:13;0.12;81.77
76102;SHT30;64830;46.910;6.354;2023-01-31T07:16:38;0.09;81.71
76102;SHT30;64830;46.910;6.354;2023-01-31T07:19:04;0.02;81.68
76102;SHT30;64830;46.910;6.354;2023-01-31T07:21:29;-0.01;81.59
76102;SHT30;64830;46.910;6.354;2023-01-31T07:23:55;-0.06;81.55
76102;SHT30;64830;46.910;6.354;2023-01-31T07:26:20;-0.10;81.52
76102;SHT30;64830;46.910;6.354;2023-01-31T07:28:45;-0.16;81.52
76102;SHT30;64830;46.910;6.354;2023-01-31T07:31:12;-0.17;81.48
76102;SHT30;64830;46.910;6.354;2023-01-31T07:33:38;-0.17;81.44
76102;SHT30;64830;46.910;6.354;2023-01-31T07:36:05;-0.17;81.21
76102;SHT30;64830;46.910;6.354;2023-01-31T07:38:32;-0.19;81.16
76102;SHT30;64830;46.910;6.354;2023-01-31T07:41:01;-0.26;81.29
76102;SHT30;64830;46.910;6.354;2023-01-31T07:43:27;-0.27;81.16
76102;SHT30;64830;46.910;6.354;2023-01-31T07:45:53;-0.26;81.17
76102;SHT30;64830;46.910;6.354;2023-01-31T07:48:18;-0.22;81.45
76102;SHT30;64830;46.910;6.354;2023-01-31T07:50:49;-0.17;81.39
76102;SHT30;64830;46.910;6.354;2023-01-31T07:53:15;-0.16;81.18
76102;SHT30;64830;46.910;6.354;2023-01-31T07:55:40;-0.19;81.05
76102;SHT30;64830;46.910;6.354;2023-01-31T07:58:05;-0.16;80.96
76102;SHT30;64830;46.910;6.354;2023-01-31T08:00:31;-0.19;80.83
76102;SHT30;64830;46.910;6.354;2023-01-31T08:03:26;-0.20;80.62
76102;SHT30;64830;46.910;6.354;2023-01-31T08:06:18;-0.23;80.69
76102;SHT30;64830;46.910;6.354;2023-01-31T08:08:44;-0.17;80.74
76102;SHT30;64830;46.910;6.354;2023-01-31T08:11:10;-0.09;80.78
76102;SHT30;64830;46.910;6.354;2023-01-31T08:13:36;0.01;80.85
76102;SHT30;64830;46.910;6.354;2023-01-31T08:16:04;0.09;80.24
76102;SHT30;64830;46.910;6.354;2023-01-31T08:18:30;0.15;80.23
76102;SHT30;64830;46.910;6.354;2023-01-31T08:20:56;0.21;79.85
76102;SHT30;64830;46.910;6.354;2023-01-31T08:23:22;0.26;79.78
76102;SHT30;64830;46.910;6.354;2023-01-31T08:25:48;0.36;79.58
76102;SHT30;64830;46.910;6.354;2023-01-31T08:28:13;0.43;79.94
76102;SHT30;64830;46.910;6.354;2023-01-31T08:30:43;0.57;79.93
76102;SHT30;64830;46.910;6.354;2023-01-31T08:33:10;0.71;79.71
76102;SHT30;64830;46.910;6.354;2023-01-31T08:35:36;0.75;79.13
76102;SHT30;64830;46.910;6.354;2023-01-31T08:38:02;0.80;78.93
76102;SHT30;64830;46.910;6.354;2023-01-31T08:40:28;0.81;79.10
76102;SHT30;64830;46.910;6.354;2023-01-31T08:42:55;0.83;78.86
76102;SHT30;64830;46.910;6.354;2023-01-31T08:45:21;0.85;78.48
76102;SHT30;64830;46.910;6.354;2023-01-31T08:47:46;0.88;78.55
76102;SHT30;64830;46.910;6.354;2023-01-31T08:50:12;0.95;78.17
76102;SHT30;64830;46.910;6.354;2023-01-31T08:52:37;0.99;78.42
76102;SHT30;64830;46.910;6.354;2023-01-31T08:55:03;1.09;78.22
76102;SHT30;64830;46.910;6.354;2023-01-31T08:57:30;1.16;78.42
76102;SHT30;64830;46.910;6.354;2023-01-31T08:59:55;1.19;77.57
76102;SHT30;64830;46.910;6.354;2023-01-31T09:02:21;1.23;77.76
76102;SHT30;64830;46.910;6.354;2023-01-31T09:04:46;1.25;77.45
76102;SHT30;64830;46.910;6.354;2023-01-31T09:07:12;1.26;77.71
76102;SHT30;64830;46.910;6.354;2023-01-31T09:09:37;1.30;77.43
76102;SHT30;64830;46.910;6.354;2023-01-31T09:12:03;1.29;76.93
76102;SHT30;64830;46.910;6.354;2023-01-31T09:14:29;1.28;77.40
76102;SHT30;64830;46.910;6.354;2023-01-31T09:16:55;1.36;77.71
76102;SHT30;64830;46.910;6.354;2023-01-31T09:19:21;1.51;77.13
76102;SHT30;64830;46.910;6.354;2023-01-31T09:21:47;1.65;77.48
76102;SHT30;64830;46.910;6.354;2023-01-31T09:24:13;1.81;76.84
76102;SHT30;64830;46.910;6.354;2023-01-31T09:26:38;1.91;76.49
76102;SHT30;64830;46.910;6.354;2023-01-31T09:29:03;2.02;76.41
76102;SHT30;64830;46.910;6.354;2023-01-31T09:31:29;2.09;75.68
76102;SHT30;64830;46.910;6.354;2023-01-31T09:33:55;2.18;76.40
76102;SHT30;64830;46.910;6.354;2023-01-31T09:36:22;2.22;75.44
76102;SHT30;64830;46.910;6.354;2023-01-31T09:38:52;2.29;75.06
76102;SHT30;64830;46.910;6.354;2023-01-31T09:41:37;2.29;75.51
76102;SHT30;64830;46.910;6.354;2023-01-31T09:44:12;2.38;75.59
76102;SHT30;64830;46.910;6.354;2023-01-31T09:46:43;2.48;75.24
76102;SHT30;64830;46.910;6.354;2023-01-31T09:49:26;2.61;75.64
76102;SHT30;64830;46.910;6.354;2023-01-31T09:51:59;2.74;75.44
76102;SHT30;64830;46.910;6.354;2023-01-31T09:54:44;2.82;75.26
76102;SHT30;64830;46.910;6.354;2023-01-31T09:57:25;3.00;75.08
76102;SHT30;64830;46.910;6.354;2023-01-31T10:11:00;3.88;71.58
76102;SHT30;64830;46.910;6.354;2023-01-31T10:13:36;3.92;72.40
76102;SHT30;64830;46.910;6.354;2023-01-31T10:16:30;4.03;73.25
76102;SHT30;64830;46.910;6.354;2023-01-31T10:19:10;4.11;73.13
76102;SHT30;64830;46.910;6.354;2023-01-31T10:21:49;4.24;73.25
76102;SHT30;64830;46.910;6.354;2023-01-31T10:24:28;4.38;73.20
76102;SHT30;64830;46.910;6.354;2023-01-31T10:27:00;4.54;72.62
76102;SHT30;64830;46.910;6.354;2023-01-31T10:29:27;4.67;71.95
76102;SHT30;64830;46.910;6.354;2023-01-31T10:34:27;4.65;71.51
76102;SHT30;64830;46.910;6.354;2023-01-31T10:37:01;4.69;70.32
76102;SHT30;64830;46.910;6.354;2023-01-31T10:47:34;4.43;68.61
76102;SHT30;64830;46.910;6.354;2023-01-31T10:50:01;4.43;70.69
76102;SHT30;64830;46.910;6.354;2023-01-31T10:52:52;4.53;69.66
76102;SHT30;64830;46.910;6.354;2023-01-31T10:58:18;4.61;68.31
76102;SHT30;64830;46.910;6.354;2023-01-31T11:00:46;4.58;69.25
76102;SHT30;64830;46.910;6.354;2023-01-31T11:03:13;4.65;69.40
76102;SHT30;64830;46.910;6.354;2023-01-31T11:05:46;4.61;68.36
76102;SHT30;64830;46.910;6.354;2023-01-31T11:08:27;4.58;68.58
76102;SHT30;64830;46.910;6.354;2023-01-31T11:10:55;4.58;67.75
76102;SHT30;64830;46.910;6.354;2023-01-31T11:13:21;4.54;69.38
76102;SHT30;64830;46.910;6.354;2023-01-31T11:15:51;4.67;69.27
76102;SHT30;64830;46.910;6.354;2023-01-31T11:18:46;4.64;67.58
76102;SHT30;64830;46.910;6.354;2023-01-31T11:21:28;4.45;69.50
76102;SHT30;64830;46.910;6.354;2023-01-31T11:24:01;4.38;69.83
76102;SHT30;64830;46.910;6.354;2023-01-31T11:26:33;4.30;69.72
76102;SHT30;64830;46.910;6.354;2023-01-31T11:28:59;4.24;70.24
76102;SHT30;64830;46.910;6.354;2023-01-31T11:31:32;4.24;69.43
76102;SHT30;64830;46.910;6.354;2023-01-31T11:34:01;4.19;69.30
76102;SHT30;64830;46.910;6.354;2023-01-31T11:36:33;4.14;70.66
76102;SHT30;64830;46.910;6.354;2023-01-31T11:39:24;4.14;70.03
76102;SHT30;64830;46.910;6.354;2023-01-31T11:41:52;4.14;70.72
76102;SHT30;64830;46.910;6.354;2023-01-31T11:44:19;4.24;70.87
76102;SHT30;64830;46.910;6.354;2023-01-31T11:46:51;4.45;71.20
76102;SHT30;64830;46.910;6.354;2023-01-31T11:49:30;4.67;69.31
76102;SHT30;64830;46.910;6.354;2023-01-31T11:51:58;4.85;69.50
76102;SHT30;64830;46.910;6.354;2023-01-31T11:54:28;5.03;70.07
76102;SHT30;64830;46.910;6.354;2023-01-31T11:56:54;5.20;69.67
76102;SHT30;64830;46.910;6.354;2023-01-31T11:59:24;5.15;66.99
76102;SHT30;64830;46.910;6.354;2023-01-31T12:01:53;4.99;67.13
76102;SHT30;64830;46.910;6.354;2023-01-31T12:04:27;4.82;68.20
76102;SHT30;64830;46.910;6.354;2023-01-31T12:07:03;4.78;69.62
76102;SHT30;64830;46.910;6.354;2023-01-31T12:09:39;4.65;66.92
76102;SHT30;64830;46.910;6.354;2023-01-31T12:12:33;4.41;69.29
76102;SHT30;64830;46.910;6.354;2023-01-31T12:15:05;4.34;69.40
76102;SHT30;64830;46.910;6.354;2023-01-31T12:17:43;4.30;70.05
76102;SHT30;64830;46.910;6.354;2023-01-31T12:31:04;4.26;69.20
76102;SHT30;64830;46.910;6.354;2023-01-31T12:33:44;4.07;69.67
76102;SHT30;64830;46.910;6.354;2023-01-31T12:36:38;4.02;70.33
76102;SHT30;64830;46.910;6.354;2023-01-31T12:39:14;4.03;70.18
76102;SHT30;64830;46.910;6.354;2023-01-31T12:44:48;3.79;70.75
76102;SHT30;64830;46.910;6.354;2023-01-31T12:47:26;3.79;70.96
76102;SHT30;64830;46.910;6.354;2023-01-31T12:52:54;3.89;71.61
76102;SHT30;64830;46.910;6.354;2023-01-31T13:00:44;3.85;70.96
76102;SHT30;64830;46.910;6.354;2023-01-31T13:03:57;3.85;71.18
76102;SHT30;64830;46.910;6.354;2023-01-31T13:08:30;3.79;71.41
76102;SHT30;64830;46.910;6.354;2023-01-31T13:11:13;3.85;71.76
76102;SHT30;64830;46.910;6.354;2023-01-31T13:16:17;3.83;71.18
76102;SHT30;64830;46.910;6.354;2023-01-31T13:18:46;3.79;71.82
76102;SHT30;64830;46.910;6.354;2023-01-31T13:21:16;3.81;72.10
76102;SHT30;64830;46.910;6.354;2023-01-31T13:23:50;3.83;72.00
76102;SHT30;64830;46.910;6.354;2023-01-31T13:26:26;3.82;70.63
76102;SHT30;64830;46.910;6.354;2023-01-31T13:29:13;3.71;71.66
76102;SHT30;64830;46.910;6.354;2023-01-31T13:32:05;3.58;71.74
76102;SHT30;64830;46.910;6.354;2023-01-31T13:34:43;3.58;72.01
76102;SHT30;64830;46.910;6.354;2023-01-31T13:37:14;3.53;71.66
76102;SHT30;64830;46.910;6.354;2023-01-31T13:39:52;3.41;72.26
76102;SHT30;64830;46.910;6.354;2023-01-31T13:42:19;3.41;72.48
76102;SHT30;64830;46.910;6.354;2023-01-31T13:44:47;3.44;72.85
76102;SHT30;64830;46.910;6.354;2023-01-31T13:47:32;3.46;72.87
76102;SHT30;64830;46.910;6.354;2023-01-31T13:50:08;3.46;73.08
76102;SHT30;64830;46.910;6.354;2023-01-31T13:52:47;3.54;73.32
76102;SHT30;64830;46.910;6.354;2023-01-31T13:55:21;3.61;73.23
76102;SHT30;64830;46.910;6.354;2023-01-31T13:58:01;3.61;72.79
76102;SHT30;64830;46.910;6.354;2023-01-31T14:00:41;3.60;72.98
76102;SHT30;64830;46.910;6.354;2023-01-31T14:03:16;3.64;73.37
76102;SHT30;64830;46.910;6.354;2023-01-31T14:08:30;3.70;72.53
76102;SHT30;64830;46.910;6.354;2023-01-31T14:10:57;3.67;73.16
76102;SHT30;64830;46.910;6.354;2023-01-31T14:13:36;3.61;72.96
76102;SHT30;64830;46.910;6.354;2023-01-31T14:16:03;3.60;72.78
76102;SHT30;64830;46.910;6.354;2023-01-31T14:23:57;3.74;73.37
76102;SHT30;64830;46.910;6.354;2023-01-31T14:29:18;3.79;72.42
76102;SHT30;64830;46.910;6.354;2023-01-31T14:31:46;3.88;72.56
76102;SHT30;64830;46.910;6.354;2023-01-31T14:34:17;3.86;72.66
76102;SHT30;64830;46.910;6.354;2023-01-31T14:37:06;3.92;72.84
76102;SHT30;64830;46.910;6.354;2023-01-31T14:42:55;3.99;73.22
76102;SHT30;64830;46.910;6.354;2023-01-31T14:59:35;3.91;72.21
76102;SHT30;64830;46.910;6.354;2023-01-31T15:05:02;3.88;72.24
76102;SHT30;64830;46.910;6.354;2023-01-31T15:07:29;3.91;72.26
76102;SHT30;64830;46.910;6.354;2023-01-31T15:09:54;3.88;71.92
76102;SHT30;64830;46.910;6.354;2023-01-31T15:12:51;3.88;71.95
76102;SHT30;64830;46.910;6.354;2023-01-31T15:15:43;3.83;72.04
76102;SHT30;64830;46.910;6.354;2023-01-31T15:18:19;3.81;72.53
76102;SHT30;64830;46.910;6.354;2023-01-31T15:20:59;3.81;72.64
76102;SHT30;64830;46.910;6.354;2023-01-31T15:23:28;3.78;71.28
76102;SHT30;64830;46.910;6.354;2023-01-31T15:25:55;3.72;71.40
76102;SHT30;64830;46.910;6.354;2023-01-31T15:28:25;3.67;71.94
76102;SHT30;64830;46.910;6.354;2023-01-31T15:30:53;3.63;72.00
76102;SHT30;64830;46.910;6.354;2023-01-31T15:33:31;3.60;72.59
76102;SHT30;64830;46.910;6.354;2023-01-31T15:36:05;3.61;72.03
76102;SHT30;64830;46.910;6.354;2023-01-31T15:38:37;3.55;71.69
76102;SHT30;64830;46.910;6.354;2023-01-31T15:41:15;3.51;71.84
76102;SHT30;64830;46.910;6.354;2023-01-31T15:43:41;3.47;72.47
76102;SHT30;64830;46.910;6.354;2023-01-31T15:46:23;3.41;72.22
76102;SHT30;64830;46.910;6.354;2023-01-31T15:48:49;3.43;72.64
76102;SHT30;64830;46.910;6.354;2023-01-31T15:51:15;3.43;72.57
76102;SHT30;64830;46.910;6.354;2023-01-31T15:53:41;3.38;72.70
76102;SHT30;64830;46.910;6.354;2023-01-31T15:56:23;3.40;73.12
76102;SHT30;64830;46.910;6.354;2023-01-31T15:58:52;3.36;72.86
76102;SHT30;64830;46.910;6.354;2023-01-31T16:01:18;3.36;73.56
76102;SHT30;64830;46.910;6.354;2023-01-31T16:03:57;3.36;73.22
76102;SHT30;64830;46.910;6.354;2023-01-31T16:06:33;3.36;73.18
76102;SHT30;64830;46.910;6.354;2023-01-31T16:09:02;3.36;73.43
76102;SHT30;64830;46.910;6.354;2023-01-31T16:11:29;3.34;73.49
76102;SHT30;64830;46.910;6.354;2023-01-31T16:13:57;3.36;73.43
76102;SHT30;64830;46.910;6.354;2023-01-31T16:16:25;3.37;73.46
76102;SHT30;64830;46.910;6.354;2023-01-31T16:18:54;3.33;73.68
76102;SHT30;64830;46.910;6.354;2023-01-31T16:21:38;3.34;73.48
76102;SHT30;64830;46.910;6.354;2023-01-31T16:26:38;3.30;73.68
76102;SHT30;64830;46.910;6.354;2023-01-31T16:29:12;3.31;73.70
76102;SHT30;64830;46.910;6.354;2023-01-31T16:31:49;3.33;73.63
76102;SHT30;64830;46.910;6.354;2023-01-31T16:34:33;3.33;73.96
76102;SHT30;64830;46.910;6.354;2023-01-31T16:37:06;3.36;74.02
76102;SHT30;64830;46.910;6.354;2023-01-31T16:39:42;3.34;74.11
76102;SHT30;64830;46.910;6.354;2023-01-31T16:44:44;3.29;74.11
76102;SHT30;64830;46.910;6.354;2023-01-31T16:52:39;3.30;73.95
76102;SHT30;64830;46.910;6.354;2023-01-31T16:55:12;3.26;74.22
76102;SHT30;64830;46.910;6.354;2023-01-31T16:57:38;3.24;74.39
76102;SHT30;64830;46.910;6.354;2023-01-31T17:00:05;3.27;74.48
76102;SHT30;64830;46.910;6.354;2023-01-31T17:02:39;3.24;74.54
76102;SHT30;64830;46.910;6.354;2023-01-31T17:05:23;3.26;74.52
76102;SHT30;64830;46.910;6.354;2023-01-31T17:07:52;3.23;74.38
76102;SHT30;64830;46.910;6.354;2023-01-31T17:10:24;3.20;74.42
76102;SHT30;64830;46.910;6.354;2023-01-31T17:12:59;3.17;74.58
76102;SHT30;64830;46.910;6.354;2023-01-31T17:15:25;3.13;74.58
76102;SHT30;64830;46.910;6.354;2023-01-31T17:17:51;3.10;74.79
76102;SHT30;64830;46.910;6.354;2023-01-31T17:20:18;3.06;74.69
76102;SHT30;64830;46.910;6.354;2023-01-31T17:22:45;3.05;74.91
76102;SHT30;64830;46.910;6.354;2023-01-31T17:25:14;2.99;74.98
76102;SHT30;64830;46.910;6.354;2023-01-31T17:27:40;2.98;75.19
76102;SHT30;64830;46.910;6.354;2023-01-31T17:30:06;2.93;75.26
76102;SHT30;64830;46.910;6.354;2023-01-31T17:32:31;2.92;75.69
76102;SHT30;64830;46.910;6.354;2023-01-31T17:34:57;2.88;75.66
76102;SHT30;64830;46.910;6.354;2023-01-31T17:37:22;2.88;75.36
76102;SHT30;64830;46.910;6.354;2023-01-31T17:39:48;2.85;75.44
76102;SHT30;64830;46.910;6.354;2023-01-31T17:42:17;2.88;75.39
76102;SHT30;64830;46.910;6.354;2023-01-31T17:44:43;2.89;75.34
76102;SHT30;64830;46.910;6.354;2023-01-31T17:47:08;2.89;75.32
76102;SHT30;64830;46.910;6.354;2023-01-31T17:49:34;2.93;75.29
76102;SHT30;64830;46.910;6.354;2023-01-31T17:51:59;2.91;75.32
76102;SHT30;64830;46.910;6.354;2023-01-31T17:54:26;2.92;75.05
76102;SHT30;64830;46.910;6.354;2023-01-31T17:56:52;2.89;74.87
76102;SHT30;64830;46.910;6.354;2023-01-31T17:59:17;2.91;74.80
76102;SHT30;64830;46.910;6.354;2023-01-31T18:01:43;2.91;74.42
76102;SHT30;64830;46.910;6.354;2023-01-31T18:04:08;2.85;74.70
76102;SHT30;64830;46.910;6.354;2023-01-31T18:06:34;2.84;74.26
76102;SHT30;64830;46.910;6.354;2023-01-31T18:09:02;2.81;74.49
76102;SHT30;64830;46.910;6.354;2023-01-31T18:11:27;2.84;74.57
76102;SHT30;64830;46.910;6.354;2023-01-31T18:13:53;2.84;74.83